createdAt,value
2019-06-07T00:01:05.321Z,100081.77
2019-06-07T00:06:07.826Z,100085.14
2019-06-07T00:11:14.987Z,100102.18
2019-06-07T00:16:16.996Z,100113.52
2019-06-07T00:21:20.145Z,100122.09
2019-06-07T00:26:21.436Z,100128.77
2019-06-07T00:31:24.771Z,100122.09
2019-06-07T00:36:26.603Z,100125.37
2019-06-07T00:41:28.165Z,100121.32
2019-06-07T00:46:29.712Z,100144.27
2019-06-07T00:51:49.433Z,100132.43
2019-06-07T00:56:34.836Z,100140.00
2019-06-07T01:01:36.551Z,100142.32
2019-06-07T01:06:38.226Z,100136.84
2019-06-07T01:11:39.870Z,100151.02
2019-06-07T01:16:56.604Z,100153.00
2019-06-07T01:21:45.117Z,100164.35
2019-06-07T01:26:46.656Z,100166.24
2019-06-07T01:31:48.222Z,100174.56
2019-06-07T01:36:49.788Z,100183.53
2019-06-07T01:41:51.400Z,100175.26
2019-06-07T01:46:52.883Z,100168.76
2019-06-07T01:51:54.582Z,100172.39
2019-06-07T01:56:56.139Z,100166.98
2019-06-07T02:01:57.698Z,100159.24
2019-06-07T02:06:59.260Z,100151.98
2019-06-07T02:12:00.850Z,100160.88
2019-06-07T02:17:02.569Z,100162.84
2019-06-07T02:22:04.301Z,100156.21
2019-06-07T02:27:05.827Z,100167.39
2019-06-07T02:32:07.390Z,100176.60
2019-06-07T02:37:09.073Z,100165.63
2019-06-07T02:42:10.642Z,100159.75
2019-06-07T02:47:12.229Z,100144.47
2019-06-07T02:52:13.825Z,100150.67
2019-06-07T02:57:15.401Z,100152.00
2019-06-07T03:02:17.223Z,100148.40
2019-06-07T03:07:18.945Z,100151.80
2019-06-07T03:12:21.607Z,100148.45
2019-06-07T03:18:01.283Z,100150.36
2019-06-07T03:23:04.052Z,100152.86
2019-06-07T03:28:05.646Z,100150.52
2019-06-07T03:33:07.218Z,100153.43
2019-06-07T03:38:08.805Z,100151.17
2019-06-07T03:43:10.476Z,100150.70
2019-06-07T03:48:12.046Z,100158.02
2019-06-07T03:53:13.613Z,100161.98
2019-06-07T03:58:31.185Z,100175.34
2019-06-07T04:03:33.509Z,100180.46
2019-06-07T04:08:22.171Z,100188.91
2019-06-07T04:13:23.772Z,100191.45
2019-06-07T04:18:25.362Z,100189.28
2019-06-07T04:23:29.859Z,100187.47
2019-06-07T04:29:25.998Z,100180.64
2019-06-07T04:33:36.338Z,100181.28
2019-06-07T04:38:40.594Z,100178.52
2019-06-07T04:43:42.881Z,100184.70
2019-06-07T04:48:45.083Z,100174.09
2019-06-07T04:53:46.643Z,100187.47
2019-06-07T04:58:48.196Z,100190.33
2019-06-07T05:09:08.202Z,100189.37
2019-06-07T05:14:09.896Z,100184.11
2019-06-07T05:19:11.576Z,100179.22
2019-06-07T05:24:13.139Z,100187.47
2019-06-07T05:29:14.802Z,100187.41
2019-06-07T05:34:16.624Z,100189.05
2019-06-07T05:39:18.186Z,100182.84
2019-06-07T05:44:19.757Z,100186.75
2019-06-07T05:49:21.420Z,100187.47
2019-06-07T05:54:22.968Z,100188.30
2019-06-07T05:59:24.523Z,100191.81
2019-06-07T06:04:26.096Z,100184.42
2019-06-07T06:09:27.860Z,100176.80
2019-06-07T06:14:29.429Z,100179.62
2019-06-07T06:19:30.992Z,100173.80
2019-06-07T06:24:32.561Z,100163.72
2019-06-07T06:29:34.121Z,100153.67
2019-06-07T06:34:39.441Z,100163.97
2019-06-07T06:39:39.564Z,100158.68
2019-06-07T06:44:43.821Z,100165.28
2019-06-07T06:49:46.865Z,100176.16
2019-06-07T06:54:55.374Z,100176.80
2019-06-07T06:59:52.841Z,100179.97
2019-06-07T07:04:54.510Z,100179.94
2019-06-07T07:09:59.282Z,100173.93
2019-06-07T07:14:59.609Z,100173.72
2019-06-07T07:20:01.180Z,100179.56
2019-06-07T07:25:03.741Z,100182.01
2019-06-07T07:30:35.291Z,100179.44
2019-06-07T07:35:09.620Z,100185.66
2019-06-07T07:40:55.298Z,100178.20
2019-06-07T07:45:15.176Z,100173.59
2019-06-07T07:50:16.892Z,100166.91
2019-06-07T07:55:18.630Z,100169.48
2019-06-07T08:05:41.621Z,100172.25
2019-06-07T08:10:27.808Z,100157.44
2019-06-07T08:15:29.364Z,100152.08
2019-06-07T08:20:31.058Z,100148.42
2019-06-07T08:25:33.903Z,100152.31
2019-06-07T08:30:50.192Z,100152.31
2019-06-07T08:40:42.685Z,100151.88
2019-06-07T08:45:44.359Z,100149.63
2019-06-07T08:50:45.933Z,100147.45
2019-06-07T08:55:47.532Z,100141.45
2019-06-07T09:00:49.088Z,100132.25
2019-06-07T09:05:53.363Z,100131.63
2019-06-07T09:10:56.594Z,100123.97
2019-06-07T09:16:03.416Z,100124.19
2019-06-07T09:21:07.067Z,100125.08
2019-06-07T09:26:15.633Z,100116.92
2019-06-07T09:31:10.399Z,100115.27
2019-06-07T09:36:13.282Z,100108.91
2019-06-07T09:41:15.235Z,100099.05
2019-06-07T09:46:17.107Z,100095.31
2019-06-07T09:51:20.440Z,100082.20
2019-06-07T09:56:22.356Z,100067.54
2019-06-07T10:01:23.944Z,100066.07
2019-06-07T10:06:25.641Z,100055.89
2019-06-07T10:11:27.203Z,100054.88
2019-06-07T10:16:28.837Z,100057.49
2019-06-07T10:21:30.433Z,100056.62
2019-06-07T10:26:32.004Z,100060.55
2019-06-07T10:31:33.549Z,100063.66
2019-06-07T10:36:35.217Z,100059.96
2019-06-07T10:41:37.121Z,100056.05
2019-06-07T10:46:38.757Z,100061.68
2019-06-07T10:51:40.313Z,100048.68
2019-06-07T11:12:59.377Z,100031.18
2019-06-07T11:18:00.977Z,100028.71
2019-06-07T11:23:02.605Z,100030.60
2019-06-07T11:28:04.270Z,100028.41
2019-06-07T12:10:21.206Z,99974.75
2019-06-07T12:15:20.917Z,99971.38
2019-06-07T12:25:45.323Z,99943.45
2019-06-07T12:30:47.065Z,99940.34
2019-06-07T12:35:48.655Z,99933.47
2019-06-07T12:40:57.643Z,99929.22
2019-06-07T12:45:53.857Z,99926.83
2019-06-07T12:50:55.405Z,99908.44
2019-06-07T12:55:59.991Z,99902.42
2019-06-07T13:01:00.569Z,99903.78
2019-06-07T13:06:02.180Z,99893.56
2019-06-07T13:11:15.708Z,99883.28
2019-06-07T13:16:07.546Z,99877.70
2019-06-07T13:21:09.098Z,99872.98
2019-06-07T13:26:10.646Z,99872.20
2019-06-07T13:31:12.239Z,99866.63
2019-06-07T13:36:13.785Z,99854.64
2019-06-07T13:41:30.246Z,99848.05
2019-06-07T13:46:20.862Z,99844.25
2019-06-07T13:51:23.313Z,99834.69
2019-06-07T13:56:26.192Z,99839.14
2019-06-07T14:01:29.022Z,99830.28
2019-06-07T14:06:30.782Z,99814.69
2019-06-07T14:11:49.406Z,99800.91
2019-06-07T14:16:35.969Z,99800.12
2019-06-07T14:21:37.550Z,99791.05
2019-06-07T14:26:41.979Z,99784.47
2019-06-07T14:31:43.706Z,99774.45
2019-06-07T14:36:45.273Z,99764.14
2019-06-07T14:41:46.845Z,99764.14
2019-06-07T14:46:48.415Z,99754.16
2019-06-07T14:51:49.999Z,99753.89
2019-06-07T14:56:51.547Z,99752.58
2019-06-07T15:01:53.162Z,99749.86
2019-06-07T15:06:54.759Z,99755.19
2019-06-07T15:11:56.373Z,99745.81
2019-06-07T15:16:57.996Z,99738.36
2019-06-07T15:21:59.567Z,99729.73
2019-06-07T15:27:01.139Z,99733.05
2019-06-07T15:32:02.954Z,99723.01
2019-06-07T15:37:04.634Z,99719.94
2019-06-07T15:42:06.170Z,99715.43
2019-06-07T15:47:07.757Z,99712.91
2019-06-07T15:52:09.456Z,99697.95
2019-06-07T15:57:10.998Z,99688.66
2019-06-07T16:02:12.678Z,99680.50
2019-06-07T16:07:14.336Z,99668.94
2019-06-07T16:12:15.966Z,99667.13
2019-06-07T16:17:17.541Z,99666.02
2019-06-07T16:22:19.096Z,99661.88
2019-06-07T16:27:20.658Z,99665.45
2019-06-07T16:32:22.238Z,99660.69
2019-06-07T16:37:23.806Z,99670.43
2019-06-07T16:42:25.391Z,99663.21
2019-06-07T16:47:26.946Z,99665.42
2019-06-07T16:52:28.592Z,99659.71
2019-06-07T16:57:30.174Z,99653.27
2019-06-07T17:02:31.715Z,99674.05
2019-06-07T17:07:33.333Z,99668.31
2019-06-07T17:12:35.114Z,99658.69
2019-06-07T17:17:36.766Z,99662.13
2019-06-07T17:22:39.059Z,99649.34
2019-06-07T17:27:42.049Z,99648.45
2019-06-07T17:32:55.081Z,99644.95
2019-06-07T17:37:48.210Z,99641.50
2019-06-07T17:42:51.077Z,99636.38
2019-06-07T17:47:52.930Z,99625.29
2019-06-07T17:52:54.606Z,99631.16
2019-06-07T17:57:56.278Z,99622.55
2019-06-07T18:02:57.844Z,99617.39
2019-06-07T18:07:59.910Z,99607.33
2019-06-07T18:13:01.560Z,99608.48
2019-06-07T18:18:03.723Z,99601.20
2019-06-07T18:23:05.514Z,99588.46
2019-06-07T18:28:07.328Z,99563.56
2019-06-07T18:33:09.176Z,99569.45
2019-06-07T18:38:11.238Z,99580.63
2019-06-07T18:43:12.897Z,99588.73
2019-06-07T18:48:14.631Z,99592.24
2019-06-07T18:53:16.210Z,99603.52
2019-06-07T18:58:17.754Z,99605.77
2019-06-07T19:03:19.319Z,99599.83
2019-06-07T19:08:20.872Z,99612.61
2019-06-07T19:13:22.428Z,99615.09
2019-06-07T19:18:23.989Z,99620.23
2019-06-07T19:23:25.531Z,99622.41
2019-06-07T19:28:27.099Z,99614.66
2019-06-07T19:33:28.657Z,99628.70
2019-06-07T19:38:30.238Z,99636.62
2019-06-07T19:43:31.796Z,99632.75
2019-06-07T19:48:33.371Z,99630.99
2019-06-07T19:53:34.911Z,99639.09
2019-06-07T19:58:36.486Z,99640.59
2019-06-07T20:03:38.046Z,99640.59
2019-06-07T20:08:39.595Z,99639.91
2019-06-07T20:13:41.286Z,99644.30
2019-06-07T20:18:42.943Z,99657.28
2019-06-07T20:23:44.489Z,99665.00
2019-06-07T20:28:46.133Z,99686.63
2019-06-07T20:33:47.693Z,99683.50
2019-06-07T20:38:49.254Z,99674.98
2019-06-07T20:43:50.823Z,99672.50
2019-06-07T20:48:52.420Z,99666.22
2019-06-07T20:53:53.976Z,99678.20
2019-06-07T20:58:55.530Z,99669.05
2019-06-07T21:03:57.100Z,99677.00
2019-06-07T21:08:59.327Z,99677.00
2019-06-07T21:14:02.021Z,99676.32
2019-06-07T21:19:04.194Z,99666.63
2019-06-07T21:24:06.793Z,99659.52
2019-06-07T21:29:09.337Z,99659.41
2019-06-07T21:34:14.015Z,99656.70
2019-06-07T21:39:14.598Z,99670.29
2019-06-07T21:44:16.151Z,99714.62
2019-06-07T21:49:17.709Z,99714.62
2019-06-07T21:54:19.265Z,99729.52
2019-06-07T21:59:20.822Z,99745.61
2019-06-07T22:04:22.376Z,99751.34
2019-06-07T22:09:23.964Z,99765.38
2019-06-07T22:14:25.616Z,99764.43
2019-06-07T22:19:27.249Z,99782.02
2019-06-07T22:24:28.818Z,99773.53
2019-06-07T22:29:30.397Z,99764.97
2019-06-07T22:34:31.981Z,99750.85
2019-06-07T22:39:33.561Z,99743.20
2019-06-07T22:44:35.119Z,99846.52
2019-06-07T22:49:36.667Z,99916.41
2019-06-07T22:54:38.247Z,99930.83
2019-06-07T22:59:39.812Z,99925.28
2019-06-07T23:04:41.404Z,99925.27
2019-06-07T23:09:42.978Z,99929.09
2019-06-07T23:14:44.582Z,99928.20
2019-06-07T23:19:46.149Z,99943.90
2019-06-07T23:24:47.704Z,99971.41
2019-06-07T23:29:49.264Z,99970.22
2019-06-07T23:34:50.818Z,99986.70
2019-06-07T23:39:52.411Z,100015.31
2019-06-07T23:44:54.094Z,100040.87
2019-06-07T23:49:55.654Z,100068.38
2019-06-07T23:54:57.209Z,100077.33
2019-06-07T23:59:58.766Z,100090.43
